Terminal Aerodrome Forecast
Issued by NWS

Current Version | Previous Version | Text Only | Print | Product List | Glossary On
Versions: 1 2 3 4 5 6 7 8 9 10 11 12 13 14 15 16 17 18 19 20 21 22 23 24 25
000
FTUS46 KSEW 042100 AAA
TAFSEA
TAF AMD
KSEA 042101Z 0421/0524 22015G23KT P6SM FEW035 SCT250
     FM042300 22015G22KT P6SM VCSH BKN035
     FM050500 18008KT P6SM -SHRA BKN030
     FM051800 22012KT P6SM -SHRA BKN030 PROB30 0518/0524 4SM -TSRA
      BKN025CB=

USA.gov is the U.S. government's official web portal to all federal, state and local government web resources and services.